Time,TemperatureF,DewpointF,PressureIn,WindDirection,WindDirectionDegrees,WindSpeedMPH,WindSpeedGustMPH,Humidity,HourlyPrecipIn,Conditions,Clouds,dailyrainin,SolarRadiationWatts/m^2,SoftwareType,DateUTC
2013-03-24 00:00:00,22.8,11.2,-100.00,North,11,3.4,5.6,60,0.00,,,-99.99,1.0,HOBO +U30 +Weather +,2013-03-24 06:00:00,
2013-03-24 00:05:00,22.7,11.2,-100.00,North,7,3.4,6.7,60,0.00,,,-99.99,1.0,HOBO +U30 +Weather +,2013-03-24 06:05:00,
2013-03-24 00:10:00,22.4,11.3,-100.00,North,6,5.1,8.5,61,0.00,,,-99.99,1.0,HOBO +U30 +Weather +,2013-03-24 06:10:00,
2013-03-24 00:15:00,22.2,10.9,-100.00,NNE,13,5.6,8.9,61,0.00,,,-99.99,1.0,HOBO +U30 +Weather +,2013-03-24 06:15:00,
2013-03-24 00:20:00,21.9,10.8,-100.00,NNE,14,7.4,11.2,61,0.00,,,-99.99,1.0,HOBO +U30 +Weather +,2013-03-24 06:20:00,
2013-03-24 00:25:00,21.7,10.9,-100.00,NNE,22,7.4,13.0,62,0.00,,,-99.99,1.0,HOBO +U30 +Weather +,2013-03-24 06:25:00,
2013-03-24 00:30:00,20.8,10.8,-100.00,NNE,18,8.5,12.3,64,0.00,,,-99.99,1.0,HOBO +U30 +Weather +,2013-03-24 06:30:00,
2013-03-24 00:35:00,20.6,11.0,-100.00,NNE,18,6.3,10.1,66,0.00,,,-99.99,1.0,HOBO +U30 +Weather +,2013-03-24 06:35:00,
2013-03-24 00:40:00,20.4,11.0,-100.00,NNE,22,5.6,8.9,66,0.00,,,-99.99,1.0,HOBO +U30 +Weather +,2013-03-24 06:40:00,
2013-03-24 00:45:00,20.2,10.8,-100.00,NNE,14,5.1,7.8,66,0.00,,,-99.99,1.0,HOBO +U30 +Weather +,2013-03-24 06:45:00,
2013-03-24 00:50:00,19.9,11.0,-100.00,North,10,5.1,7.8,67,0.00,,,-99.99,1.0,HOBO +U30 +Weather +,2013-03-24 06:50:00,
2013-03-24 00:55:00,19.2,11.0,-100.00,North,4,7.4,9.6,69,0.00,,,-99.99,1.0,HOBO +U30 +Weather +,2013-03-24 06:55:00,
2013-03-24 01:00:00,19.0,11.2,-100.00,North,1,6.7,9.6,71,0.00,,,-99.99,1.0,HOBO +U30 +Weather +,2013-03-24 07:00:00,
2013-03-24 01:05:00,18.8,11.5,-100.00,North,8,5.6,8.5,72,0.00,,,-99.99,1.0,HOBO +U30 +Weather +,2013-03-24 07:05:00,
2013-03-24 01:10:00,18.7,11.8,-100.00,North,8,6.3,9.6,74,0.00,,,-99.99,1.0,HOBO +U30 +Weather +,2013-03-24 07:10:00,
2013-03-24 01:15:00,18.6,11.9,-100.00,North,3,5.6,8.9,74,0.00,,,-99.99,1.0,HOBO +U30 +Weather +,2013-03-24 07:15:00,
2013-03-24 01:20:00,18.5,11.9,-100.00,North,1,6.3,8.5,74,0.00,,,-99.99,1.0,HOBO +U30 +Weather +,2013-03-24 07:20:00,
2013-03-24 01:25:00,18.5,11.9,-100.00,North,11,5.1,8.5,75,0.00,,,-99.99,1.0,HOBO +U30 +Weather +,2013-03-24 07:25:00,
2013-03-24 01:30:00,18.6,12.0,-100.00,NNE,18,5.6,9.6,75,0.00,,,-99.99,1.0,HOBO +U30 +Weather +,2013-03-24 07:30:00,
2013-03-24 01:35:00,18.4,12.0,-100.00,North,8,6.3,8.9,75,0.00,,,-99.99,1.0,HOBO +U30 +Weather +,2013-03-24 07:35:00,
2013-03-24 01:40:00,18.2,11.9,-100.00,North,10,6.3,8.9,76,0.00,,,-99.99,1.0,HOBO +U30 +Weather +,2013-03-24 07:40:00,
2013-03-24 01:45:00,18.2,12.0,-100.00,NNE,15,5.6,8.5,76,0.00,,,-99.99,1.0,HOBO +U30 +Weather +,2013-03-24 07:45:00,
2013-03-24 01:50:00,18.2,12.0,-100.00,NNE,13,5.1,7.4,76,0.00,,,-99.99,1.0,HOBO +U30 +Weather +,2013-03-24 07:50:00,
2013-03-24 01:55:00,18.2,12.0,-100.00,North,10,3.4,6.7,76,0.00,,,-99.99,1.0,HOBO +U30 +Weather +,2013-03-24 07:55:00,
2013-03-24 02:00:00,18.2,12.0,-100.00,NNE,17,4.5,7.8,76,0.00,,,-99.99,1.0,HOBO +U30 +Weather +,2013-03-24 08:00:00,
2013-03-24 02:05:00,18.0,11.8,-100.00,North,1,4.0,6.7,76,0.00,,,-99.99,1.0,HOBO +U30 +Weather +,2013-03-24 08:05:00,
2013-03-24 02:10:00,17.7,11.8,-100.00,North,1,4.5,7.8,77,0.00,,,-99.99,1.0,HOBO +U30 +Weather +,2013-03-24 08:10:00,
2013-03-24 02:15:00,17.6,11.8,-100.00,North,1,3.4,5.1,77,0.00,,,-99.99,1.0,HOBO +U30 +Weather +,2013-03-24 08:15:00,
2013-03-24 02:20:00,17.5,11.8,-100.00,North,350,2.9,5.6,77,0.00,,,-99.99,1.0,HOBO +U30 +Weather +,2013-03-24 08:20:00,
2013-03-24 02:25:00,17.5,11.8,-100.00,North,355,1.8,5.1,77,0.00,,,-99.99,1.0,HOBO +U30 +Weather +,2013-03-24 08:25:00,
2013-03-24 02:30:00,17.6,11.9,-100.00,NNW,348,2.9,6.3,78,0.00,,,-99.99,1.0,HOBO +U30 +Weather +,2013-03-24 08:30:00,
2013-03-24 02:35:00,17.4,11.7,-100.00,North,350,3.4,6.3,78,0.00,,,-99.99,1.0,HOBO +U30 +Weather +,2013-03-24 08:35:00,
2013-03-24 02:40:00,17.2,11.6,-100.00,North,0,3.4,5.6,78,0.00,,,-99.99,1.0,HOBO +U30 +Weather +,2013-03-24 08:40:00,
2013-03-24 02:45:00,17.1,11.6,-100.00,North,352,2.9,6.3,78,0.00,,,-99.99,1.0,HOBO +U30 +Weather +,2013-03-24 08:45:00,
2013-03-24 02:50:00,17.2,11.7,-100.00,NNW,343,2.2,5.1,78,0.00,,,-99.99,1.0,HOBO +U30 +Weather +,2013-03-24 08:50:00,
2013-03-24 02:55:00,17.2,11.7,-100.00,NW,319,1.1,3.4,78,0.00,,,-99.99,1.0,HOBO +U30 +Weather +,2013-03-24 08:55:00,
2013-03-24 03:00:00,17.2,11.6,-100.00,NW,317,1.1,5.1,78,0.00,,,-99.99,1.0,HOBO +U30 +Weather +,2013-03-24 09:00:00,
2013-03-24 03:05:00,17.1,11.4,-100.00,NW,324,0.7,3.4,77,0.00,,,-99.99,1.0,HOBO +U30 +Weather +,2013-03-24 09:05:00,
2013-03-24 03:10:00,17.3,11.6,-100.00,NNW,336,0.0,1.1,77,0.00,,,-99.99,1.0,HOBO +U30 +Weather +,2013-03-24 09:10:00,
2013-03-24 03:15:00,17.4,11.5,-100.00,NNW,333,0.0,2.2,77,0.00,,,-99.99,1.0,HOBO +U30 +Weather +,2013-03-24 09:15:00,
2013-03-24 03:20:00,17.5,11.6,-100.00,NW,324,0.7,2.9,77,0.00,,,-99.99,1.0,HOBO +U30 +Weather +,2013-03-24 09:20:00,
2013-03-24 03:25:00,17.4,11.5,-100.00,NW,307,0.7,3.4,77,0.00,,,-99.99,1.0,HOBO +U30 +Weather +,2013-03-24 09:25:00,
2013-03-24 03:30:00,17.5,11.5,-100.00,NW,307,0.7,2.9,76,0.00,,,-99.99,1.0,HOBO +U30 +Weather +,2013-03-24 09:30:00,
2013-03-24 03:35:00,17.9,11.8,-100.00,WNW,299,1.8,4.0,76,0.00,,,-99.99,1.0,HOBO +U30 +Weather +,2013-03-24 09:35:00,
2013-03-24 03:40:00,17.8,11.6,-100.00,WNW,293,0.7,4.0,76,0.00,,,-99.99,1.0,HOBO +U30 +Weather +,2013-03-24 09:40:00,
2013-03-24 03:45:00,17.7,11.5,-100.00,WNW,293,0.7,2.2,76,0.00,,,-99.99,1.0,HOBO +U30 +Weather +,2013-03-24 09:45:00,
2013-03-24 03:50:00,17.3,11.3,-100.00,WNW,293,0.0,0.0,76,0.00,,,-99.99,1.0,HOBO +U30 +Weather +,2013-03-24 09:50:00,
2013-03-24 03:55:00,17.2,11.2,-100.00,West,279,0.0,2.9,76,0.00,,,-99.99,1.0,HOBO +U30 +Weather +,2013-03-24 09:55:00,
2013-03-24 04:00:00,17.1,11.3,-100.00,South,187,1.1,2.9,77,0.00,,,-99.99,1.0,HOBO +U30 +Weather +,2013-03-24 10:00:00,
2013-03-24 04:05:00,17.0,11.2,-100.00,South,178,1.1,2.9,77,0.00,,,-99.99,1.0,HOBO +U30 +Weather +,2013-03-24 10:05:00,
2013-03-24 04:10:00,16.8,11.2,-100.00,South,177,0.7,2.2,78,0.00,,,-99.99,1.0,HOBO +U30 +Weather +,2013-03-24 10:10:00,
2013-03-24 04:15:00,16.8,10.9,-100.00,South,191,1.1,2.9,77,0.00,,,-99.99,1.0,HOBO +U30 +Weather +,2013-03-24 10:15:00,
2013-03-24 04:20:00,16.7,10.8,-100.00,SSW,201,0.0,1.8,77,0.00,,,-99.99,1.0,HOBO +U30 +Weather +,2013-03-24 10:20:00,
2013-03-24 04:25:00,16.1,10.3,-100.00,ESE,119,0.7,2.2,77,0.00,,,-99.99,1.0,HOBO +U30 +Weather +,2013-03-24 10:25:00,
2013-03-24 04:30:00,16.0,10.7,-100.00,ENE,76,1.8,4.5,79,0.00,,,-99.99,1.0,HOBO +U30 +Weather +,2013-03-24 10:30:00,
2013-03-24 04:35:00,15.5,10.7,-100.00,NE,53,4.0,5.6,81,0.00,,,-99.99,1.0,HOBO +U30 +Weather +,2013-03-24 10:35:00,
2013-03-24 04:40:00,15.0,10.5,-100.00,NE,52,4.5,6.7,82,0.00,,,-99.99,1.0,HOBO +U30 +Weather +,2013-03-24 10:40:00,
2013-03-24 04:45:00,14.6,10.3,-100.00,NE,46,5.6,7.4,82,0.00,,,-99.99,1.0,HOBO +U30 +Weather +,2013-03-24 10:45:00,
2013-03-24 04:50:00,14.4,10.1,-100.00,NE,44,6.7,8.9,82,0.00,,,-99.99,1.0,HOBO +U30 +Weather +,2013-03-24 10:50:00,
2013-03-24 04:55:00,14.1,10.0,-100.00,NNE,32,6.7,8.9,83,0.00,,,-99.99,1.0,HOBO +U30 +Weather +,2013-03-24 10:55:00,
2013-03-24 05:00:00,14.0,9.8,-100.00,NNE,21,4.0,6.3,83,0.00,,,-99.99,1.0,HOBO +U30 +Weather +,2013-03-24 11:00:00,
2013-03-24 05:05:00,13.6,9.4,-100.00,NNE,18,5.6,7.8,83,0.00,,,-99.99,1.0,HOBO +U30 +Weather +,2013-03-24 11:05:00,
2013-03-24 05:10:00,13.8,9.6,-100.00,NNE,32,5.1,7.8,83,0.00,,,-99.99,1.0,HOBO +U30 +Weather +,2013-03-24 11:10:00,
2013-03-24 05:15:00,13.9,9.5,-100.00,NNE,29,3.4,5.6,82,0.00,,,-99.99,1.0,HOBO +U30 +Weather +,2013-03-24 11:15:00,
2013-03-24 05:20:00,13.9,9.4,-100.00,NNE,22,3.4,5.1,82,0.00,,,-99.99,1.0,HOBO +U30 +Weather +,2013-03-24 11:20:00,
2013-03-24 05:25:00,14.0,9.4,-100.00,NNE,21,1.8,4.5,81,0.00,,,-99.99,1.0,HOBO +U30 +Weather +,2013-03-24 11:25:00,
2013-03-24 05:30:00,13.9,9.3,-100.00,NNE,14,3.4,5.1,81,0.00,,,-99.99,1.0,HOBO +U30 +Weather +,2013-03-24 11:30:00,
2013-03-24 05:35:00,14.0,9.4,-100.00,North,6,3.4,5.1,81,0.00,,,-99.99,1.0,HOBO +U30 +Weather +,2013-03-24 11:35:00,
2013-03-24 05:40:00,14.0,9.4,-100.00,North,7,2.9,4.5,81,0.00,,,-99.99,1.0,HOBO +U30 +Weather +,2013-03-24 11:40:00,
2013-03-24 05:45:00,14.0,9.3,-100.00,North,7,1.1,4.0,81,0.00,,,-99.99,1.0,HOBO +U30 +Weather +,2013-03-24 11:45:00,
2013-03-24 05:50:00,14.0,9.4,-100.00,North,7,0.7,2.9,81,0.00,,,-99.99,1.0,HOBO +U30 +Weather +,2013-03-24 11:50:00,
2013-03-24 05:55:00,14.0,9.4,-100.00,North,7,1.1,2.9,81,0.00,,,-99.99,1.0,HOBO +U30 +Weather +,2013-03-24 11:55:00,
2013-03-24 06:00:00,13.9,9.3,-100.00,NNE,14,2.2,4.0,81,0.00,,,-99.99,1.0,HOBO +U30 +Weather +,2013-03-24 12:00:00,
2013-03-24 06:05:00,13.8,9.4,-100.00,NNE,18,1.1,3.4,82,0.00,,,-99.99,1.0,HOBO +U30 +Weather +,2013-03-24 12:05:00,
2013-03-24 06:10:00,13.8,9.4,-100.00,NNE,18,0.7,1.8,82,0.00,,,-99.99,1.0,HOBO +U30 +Weather +,2013-03-24 12:10:00,
2013-03-24 06:15:00,13.7,9.3,-100.00,NNE,18,0.7,1.8,82,0.00,,,-99.99,1.0,HOBO +U30 +Weather +,2013-03-24 12:15:00,
2013-03-24 06:20:00,13.8,9.5,-100.00,NNE,18,0.7,1.8,82,0.00,,,-99.99,1.0,HOBO +U30 +Weather +,2013-03-24 12:20:00,
2013-03-24 06:25:00,13.8,9.5,-100.00,NNE,18,0.0,1.1,82,0.00,,,-99.99,1.0,HOBO +U30 +Weather +,2013-03-24 12:25:00,
2013-03-24 06:30:00,13.9,9.6,-100.00,NNE,18,1.1,2.9,82,0.00,,,-99.99,1.0,HOBO +U30 +Weather +,2013-03-24 12:30:00,
2013-03-24 06:35:00,13.9,9.7,-100.00,NNE,17,1.1,2.9,83,0.00,,,-99.99,1.0,HOBO +U30 +Weather +,2013-03-24 12:35:00,
2013-03-24 06:40:00,14.0,9.7,-100.00,NNE,17,1.8,2.9,83,0.00,,,-99.99,1.0,HOBO +U30 +Weather +,2013-03-24 12:40:00,
2013-03-24 06:45:00,14.1,9.8,-100.00,NNE,17,1.8,3.4,82,0.00,,,-99.99,1.0,HOBO +U30 +Weather +,2013-03-24 12:45:00,
2013-03-24 06:50:00,14.3,10.1,-100.00,NNE,17,0.7,2.2,83,0.00,,,-99.99,1.0,HOBO +U30 +Weather +,2013-03-24 12:50:00,
2013-03-24 06:55:00,14.4,10.2,-100.00,NNE,17,0.7,1.8,83,0.00,,,-99.99,1.0,HOBO +U30 +Weather +,2013-03-24 12:55:00,
2013-03-24 07:00:00,14.5,10.4,-100.00,NNE,17,0.0,1.8,83,0.00,,,-99.99,1.0,HOBO +U30 +Weather +,2013-03-24 13:00:00,
2013-03-24 07:05:00,14.5,10.3,-100.00,NNE,17,1.1,2.9,83,0.00,,,-99.99,1.0,HOBO +U30 +Weather +,2013-03-24 13:05:00,
2013-03-24 07:10:00,14.8,10.6,-100.00,NNE,13,2.2,5.1,83,0.00,,,-99.99,2.0,HOBO +U30 +Weather +,2013-03-24 13:10:00,
2013-03-24 07:15:00,14.8,10.7,-100.00,North,7,2.9,4.5,83,0.00,,,-99.99,4.0,HOBO +U30 +Weather +,2013-03-24 13:15:00,
2013-03-24 07:20:00,14.9,10.7,-100.00,NNE,15,1.1,3.4,83,0.00,,,-99.99,9.0,HOBO +U30 +Weather +,2013-03-24 13:20:00,
2013-03-24 07:25:00,15.1,10.8,-100.00,NE,34,1.8,4.0,82,0.00,,,-99.99,14.0,HOBO +U30 +Weather +,2013-03-24 13:25:00,
2013-03-24 07:30:00,15.4,10.8,-100.00,NE,38,0.0,1.1,81,0.00,,,-99.99,21.0,HOBO +U30 +Weather +,2013-03-24 13:30:00,
2013-03-24 07:35:00,15.4,10.6,-100.00,NE,38,0.0,1.8,80,0.00,,,-99.99,27.0,HOBO +U30 +Weather +,2013-03-24 13:35:00,
2013-03-24 07:40:00,15.7,10.7,-100.00,NE,38,0.0,1.8,80,0.00,,,-99.99,34.0,HOBO +U30 +Weather +,2013-03-24 13:40:00,
2013-03-24 07:45:00,16.0,10.9,-100.00,NE,37,0.0,1.1,80,0.00,,,-99.99,41.0,HOBO +U30 +Weather +,2013-03-24 13:45:00,
2013-03-24 07:50:00,16.0,10.6,-100.00,NNE,24,0.0,1.1,79,0.00,,,-99.99,47.0,HOBO +U30 +Weather +,2013-03-24 13:50:00,
2013-03-24 07:55:00,16.3,10.8,-100.00,North,0,0.0,0.7,78,0.00,,,-99.99,56.0,HOBO +U30 +Weather +,2013-03-24 13:55:00,
2013-03-24 08:00:00,16.7,11.0,-100.00,North,355,0.0,0.7,77,0.00,,,-99.99,61.0,HOBO +U30 +Weather +,2013-03-24 14:00:00,
2013-03-24 08:05:00,16.8,10.7,-100.00,North,355,0.0,1.8,76,0.00,,,-99.99,62.0,HOBO +U30 +Weather +,2013-03-24 14:05:00,
2013-03-24 08:10:00,16.6,10.5,-100.00,North,355,0.0,1.1,76,0.00,,,-99.99,69.0,HOBO +U30 +Weather +,2013-03-24 14:10:00,
2013-03-24 08:15:00,17.4,11.2,-100.00,North,355,0.0,0.7,76,0.00,,,-99.99,79.0,HOBO +U30 +Weather +,2013-03-24 14:15:00,
2013-03-24 08:20:00,18.5,12.1,-100.00,North,355,0.0,0.0,75,0.00,,,-99.99,86.0,HOBO +U30 +Weather +,2013-03-24 14:20:00,
2013-03-24 08:25:00,17.9,11.3,-100.00,NNE,13,0.7,2.9,74,0.00,,,-99.99,97.0,HOBO +U30 +Weather +,2013-03-24 14:25:00,
2013-03-24 08:30:00,17.4,11.4,-100.00,SSE,167,1.1,3.4,77,0.00,,,-99.99,112.0,HOBO +U30 +Weather +,2013-03-24 14:30:00,
2013-03-24 08:35:00,17.0,11.4,-100.00,South,183,1.1,2.9,78,0.00,,,-99.99,114.0,HOBO +U30 +Weather +,2013-03-24 14:35:00,
2013-03-24 08:40:00,18.1,11.9,-100.00,SSE,157,0.7,2.2,76,0.00,,,-99.99,104.0,HOBO +U30 +Weather +,2013-03-24 14:40:00,
2013-03-24 08:45:00,19.7,13.6,-100.00,SSE,153,0.0,0.7,76,0.00,,,-99.99,108.0,HOBO +U30 +Weather +,2013-03-24 14:45:00,
2013-03-24 08:50:00,19.4,12.1,-100.00,SE,142,0.0,1.1,72,0.00,,,-99.99,112.0,HOBO +U30 +Weather +,2013-03-24 14:50:00,
2013-03-24 08:55:00,20.0,13.2,-100.00,SE,136,0.0,1.1,74,0.00,,,-99.99,119.0,HOBO +U30 +Weather +,2013-03-24 14:55:00,
2013-03-24 09:00:00,20.5,13.3,-100.00,SE,136,0.0,0.0,73,0.00,,,-99.99,134.0,HOBO +U30 +Weather +,2013-03-24 15:00:00,
2013-03-24 09:05:00,19.8,12.0,-100.00,ESE,111,0.0,1.1,71,0.00,,,-99.99,148.0,HOBO +U30 +Weather +,2013-03-24 15:05:00,
2013-03-24 09:10:00,21.4,13.5,-100.00,East,81,0.0,0.7,71,0.00,,,-99.99,164.0,HOBO +U30 +Weather +,2013-03-24 15:10:00,
2013-03-24 09:15:00,22.0,13.1,-100.00,East,80,0.0,0.7,68,0.00,,,-99.99,189.0,HOBO +U30 +Weather +,2013-03-24 15:15:00,
2013-03-24 09:20:00,22.4,13.8,-100.00,ENE,73,0.0,0.7,69,0.00,,,-99.99,253.0,HOBO +U30 +Weather +,2013-03-24 15:20:00,
2013-03-24 09:25:00,21.6,12.4,-100.00,East,97,0.0,1.1,67,0.00,,,-99.99,252.0,HOBO +U30 +Weather +,2013-03-24 15:25:00,
2013-03-24 09:30:00,21.5,13.2,-100.00,SE,133,0.0,2.2,69,0.00,,,-99.99,228.0,HOBO +U30 +Weather +,2013-03-24 15:30:00,
2013-03-24 09:35:00,20.8,11.7,-100.00,SE,143,1.1,3.4,67,0.00,,,-99.99,234.0,HOBO +U30 +Weather +,2013-03-24 15:35:00,
2013-03-24 09:40:00,21.1,11.3,-100.00,South,178,1.8,3.4,65,0.00,,,-99.99,269.0,HOBO +U30 +Weather +,2013-03-24 15:40:00,
2013-03-24 09:45:00,23.1,12.6,-100.00,South,183,0.0,2.2,63,0.00,,,-99.99,288.0,HOBO +U30 +Weather +,2013-03-24 15:45:00,
2013-03-24 09:50:00,23.5,12.4,-100.00,SE,145,0.0,1.8,62,0.00,,,-99.99,272.0,HOBO +U30 +Weather +,2013-03-24 15:50:00,
2013-03-24 09:55:00,22.3,11.0,-100.00,NNE,14,0.7,2.9,61,0.00,,,-99.99,278.0,HOBO +U30 +Weather +,2013-03-24 15:55:00,
2013-03-24 10:00:00,22.6,12.0,-100.00,NNW,343,0.0,2.2,63,0.00,,,-99.99,303.0,HOBO +U30 +Weather +,2013-03-24 16:00:00,
2013-03-24 10:05:00,24.1,12.2,-100.00,NNW,338,0.0,1.8,60,0.00,,,-99.99,269.0,HOBO +U30 +Weather +,2013-03-24 16:05:00,
2013-03-24 10:10:00,21.8,10.2,-100.00,NW,324,0.7,3.4,60,0.00,,,-99.99,272.0,HOBO +U30 +Weather +,2013-03-24 16:10:00,
2013-03-24 10:15:00,21.7,10.2,-100.00,NNW,330,0.7,2.9,60,0.00,,,-99.99,293.0,HOBO +U30 +Weather +,2013-03-24 16:15:00,
2013-03-24 10:20:00,23.1,11.0,-100.00,NE,34,1.1,5.1,59,0.00,,,-99.99,319.0,HOBO +U30 +Weather +,2013-03-24 16:20:00,
2013-03-24 10:25:00,21.9,10.1,-100.00,NNE,24,4.5,7.4,59,0.00,,,-99.99,292.0,HOBO +U30 +Weather +,2013-03-24 16:25:00,
2013-03-24 10:30:00,22.6,11.2,-100.00,NNW,334,2.2,5.6,60,0.00,,,-99.99,412.0,HOBO +U30 +Weather +,2013-03-24 16:30:00,
2013-03-24 10:35:00,24.9,11.0,-100.00,North,355,0.7,4.5,54,0.00,,,-99.99,438.0,HOBO +U30 +Weather +,2013-03-24 16:35:00,
2013-03-24 10:40:00,23.3,10.7,-100.00,NW,323,2.2,5.1,58,0.00,,,-99.99,453.0,HOBO +U30 +Weather +,2013-03-24 16:40:00,
2013-03-24 10:45:00,22.7,10.2,-100.00,West,277,1.1,2.9,58,0.00,,,-99.99,333.0,HOBO +U30 +Weather +,2013-03-24 16:45:00,
2013-03-24 10:50:00,23.4,11.0,-100.00,WSW,250,0.7,2.9,58,0.00,,,-99.99,324.0,HOBO +U30 +Weather +,2013-03-24 16:50:00,
2013-03-24 10:55:00,25.7,11.9,-100.00,WNW,295,0.7,4.5,55,0.00,,,-99.99,367.0,HOBO +U30 +Weather +,2013-03-24 16:55:00,
2013-03-24 11:00:00,22.5,9.4,-100.00,NW,321,4.0,7.8,56,0.00,,,-99.99,318.0,HOBO +U30 +Weather +,2013-03-24 17:00:00,
2013-03-24 11:05:00,22.4,9.6,-100.00,WNW,302,2.2,5.1,57,0.00,,,-99.99,243.0,HOBO +U30 +Weather +,2013-03-24 17:05:00,
2013-03-24 11:10:00,24.5,11.3,-100.00,NW,313,1.1,4.0,56,0.00,,,-99.99,492.0,HOBO +U30 +Weather +,2013-03-24 17:10:00,
2013-03-24 11:15:00,26.3,12.1,-100.00,NW,317,0.7,3.4,54,0.00,,,-99.99,442.0,HOBO +U30 +Weather +,2013-03-24 17:15:00,
2013-03-24 11:20:00,26.2,10.6,-100.00,NNW,336,1.1,6.3,51,0.00,,,-99.99,471.0,HOBO +U30 +Weather +,2013-03-24 17:20:00,
2013-03-24 11:25:00,25.7,10.8,-100.00,North,350,2.2,6.3,52,0.00,,,-99.99,607.0,HOBO +U30 +Weather +,2013-03-24 17:25:00,
2013-03-24 11:30:00,27.0,11.2,-100.00,NNW,345,2.9,8.5,50,0.00,,,-99.99,591.0,HOBO +U30 +Weather +,2013-03-24 17:30:00,
2013-03-24 11:35:00,25.5,10.2,-100.00,North,350,4.5,8.9,51,0.00,,,-99.99,573.0,HOBO +U30 +Weather +,2013-03-24 17:35:00,
2013-03-24 11:40:00,29.2,12.3,-100.00,WNW,286,0.0,3.4,48,0.00,,,-99.99,594.0,HOBO +U30 +Weather +,2013-03-24 17:40:00,
2013-03-24 11:45:00,28.7,11.5,-100.00,NNW,331,1.1,4.5,47,0.00,,,-99.99,551.0,HOBO +U30 +Weather +,2013-03-24 17:45:00,
2013-03-24 11:50:00,26.6,10.0,-100.00,NNE,32,2.2,6.3,48,0.00,,,-99.99,591.0,HOBO +U30 +Weather +,2013-03-24 17:50:00,
2013-03-24 11:55:00,29.4,12.1,-100.00,SE,136,1.8,5.6,47,0.00,,,-99.99,574.0,HOBO +U30 +Weather +,2013-03-24 17:55:00,
2013-03-24 12:00:00,29.2,9.9,-100.00,NNW,330,2.2,8.9,43,0.00,,,-99.99,659.0,HOBO +U30 +Weather +,2013-03-24 18:00:00,
2013-03-24 12:05:00,27.7,9.4,-100.00,North,3,7.8,10.7,45,0.00,,,-99.99,668.0,HOBO +U30 +Weather +,2013-03-24 18:05:00,
2013-03-24 12:10:00,26.7,9.3,-100.00,NNE,18,6.7,10.7,47,0.00,,,-99.99,698.0,HOBO +U30 +Weather +,2013-03-24 18:10:00,
2013-03-24 12:15:00,27.9,9.4,-100.00,North,6,3.4,7.8,45,0.00,,,-99.99,681.0,HOBO +U30 +Weather +,2013-03-24 18:15:00,
2013-03-24 12:20:00,26.3,8.9,-100.00,ENE,63,6.3,10.1,47,0.00,,,-99.99,699.0,HOBO +U30 +Weather +,2013-03-24 18:20:00,
2013-03-24 12:25:00,28.0,9.7,-100.00,ENE,65,2.9,5.6,45,0.00,,,-99.99,669.0,HOBO +U30 +Weather +,2013-03-24 18:25:00,
2013-03-24 12:30:00,28.0,8.8,-100.00,North,350,4.5,10.7,43,0.00,,,-99.99,686.0,HOBO +U30 +Weather +,2013-03-24 18:30:00,
2013-03-24 12:35:00,28.2,9.1,-100.00,NNE,13,6.3,11.2,44,0.00,,,-99.99,686.0,HOBO +U30 +Weather +,2013-03-24 18:35:00,
2013-03-24 12:40:00,27.9,9.2,-100.00,ENE,62,5.6,10.1,44,0.00,,,-99.99,706.0,HOBO +U30 +Weather +,2013-03-24 18:40:00,
2013-03-24 12:45:00,28.5,8.6,-100.00,North,8,5.1,13.0,42,0.00,,,-99.99,707.0,HOBO +U30 +Weather +,2013-03-24 18:45:00,
2013-03-24 12:50:00,28.2,8.6,-100.00,North,352,6.7,13.0,43,0.00,,,-99.99,714.0,HOBO +U30 +Weather +,2013-03-24 18:50:00,
2013-03-24 12:55:00,28.2,8.8,-100.00,NNE,22,8.5,14.5,43,0.00,,,-99.99,703.0,HOBO +U30 +Weather +,2013-03-24 18:55:00,
2013-03-24 13:00:00,29.7,9.6,-100.00,NNE,17,4.5,11.2,42,0.00,,,-99.99,714.0,HOBO +U30 +Weather +,2013-03-24 19:00:00,
2013-03-24 13:05:00,30.0,10.0,-100.00,NNE,28,5.6,11.9,42,0.00,,,-99.99,709.0,HOBO +U30 +Weather +,2013-03-24 19:05:00,
2013-03-24 13:10:00,29.3,8.6,-100.00,NNW,329,5.6,13.0,41,0.00,,,-99.99,716.0,HOBO +U30 +Weather +,2013-03-24 19:10:00,
2013-03-24 13:15:00,29.4,8.9,-100.00,NNW,327,8.5,14.5,41,0.00,,,-99.99,712.0,HOBO +U30 +Weather +,2013-03-24 19:15:00,
2013-03-24 13:20:00,29.6,9.9,-100.00,NE,53,5.6,12.3,43,0.00,,,-99.99,712.0,HOBO +U30 +Weather +,2013-03-24 19:20:00,
2013-03-24 13:25:00,28.9,8.4,-100.00,NNE,14,8.5,15.2,41,0.00,,,-99.99,709.0,HOBO +U30 +Weather +,2013-03-24 19:25:00,
2013-03-24 13:30:00,28.7,8.7,-100.00,NE,55,5.6,10.7,42,0.00,,,-99.99,707.0,HOBO +U30 +Weather +,2013-03-24 19:30:00,
2013-03-24 13:35:00,28.0,8.6,-100.00,NE,53,9.6,15.9,43,0.00,,,-99.99,709.0,HOBO +U30 +Weather +,2013-03-24 19:35:00,
2013-03-24 13:40:00,29.2,8.5,-100.00,ENE,58,7.8,13.4,41,0.00,,,-99.99,683.0,HOBO +U30 +Weather +,2013-03-24 19:40:00,
2013-03-24 13:45:00,28.5,8.4,-100.00,ENE,59,6.7,12.3,42,0.00,,,-99.99,709.0,HOBO +U30 +Weather +,2013-03-24 19:45:00,
2013-03-24 13:50:00,30.7,9.2,-100.00,East,86,3.4,9.6,39,0.00,,,-99.99,697.0,HOBO +U30 +Weather +,2013-03-24 19:50:00,
2013-03-24 13:55:00,31.0,9.1,-100.00,NE,34,8.9,14.1,39,0.00,,,-99.99,687.0,HOBO +U30 +Weather +,2013-03-24 19:55:00,
2013-03-24 14:00:00,31.5,9.4,-100.00,NNE,22,5.6,12.3,39,0.00,,,-99.99,692.0,HOBO +U30 +Weather +,2013-03-24 20:00:00,
2013-03-24 14:05:00,30.2,7.8,-100.00,NNE,31,7.8,14.5,38,0.00,,,-99.99,704.0,HOBO +U30 +Weather +,2013-03-24 20:05:00,
2013-03-24 14:10:00,30.9,8.4,-100.00,NNE,25,6.7,10.1,38,0.00,,,-99.99,684.0,HOBO +U30 +Weather +,2013-03-24 20:10:00,
2013-03-24 14:15:00,31.2,7.7,-100.00,NE,37,4.0,10.1,36,0.00,,,-99.99,689.0,HOBO +U30 +Weather +,2013-03-24 20:15:00,
2013-03-24 14:20:00,33.0,9.0,-100.00,NE,49,2.2,10.1,36,0.00,,,-99.99,703.0,HOBO +U30 +Weather +,2013-03-24 20:20:00,
2013-03-24 14:25:00,31.7,8.0,-100.00,ENE,76,5.1,7.8,36,0.00,,,-99.99,554.0,HOBO +U30 +Weather +,2013-03-24 20:25:00,
2013-03-24 14:30:00,32.5,5.8,-100.00,NE,45,11.2,20.4,31,0.00,,,-99.99,591.0,HOBO +U30 +Weather +,2013-03-24 20:30:00,
2013-03-24 14:35:00,33.2,5.3,-100.00,North,10,10.1,17.4,30,0.00,,,-99.99,676.0,HOBO +U30 +Weather +,2013-03-24 20:35:00,
2013-03-24 14:40:00,33.7,5.4,-100.00,NNW,334,6.7,14.5,29,0.00,,,-99.99,662.0,HOBO +U30 +Weather +,2013-03-24 20:40:00,
2013-03-24 14:45:00,33.0,5.5,-100.00,North,355,7.4,12.3,30,0.00,,,-99.99,643.0,HOBO +U30 +Weather +,2013-03-24 20:45:00,
2013-03-24 14:50:00,32.6,4.5,-100.00,NNE,17,10.1,17.0,29,0.00,,,-99.99,612.0,HOBO +U30 +Weather +,2013-03-24 20:50:00,
2013-03-24 14:55:00,33.7,5.8,-100.00,North,352,8.9,15.2,30,0.00,,,-99.99,654.0,HOBO +U30 +Weather +,2013-03-24 20:55:00,
2013-03-24 15:00:00,32.9,4.8,-100.00,NNW,347,10.1,18.1,29,0.00,,,-99.99,647.0,HOBO +U30 +Weather +,2013-03-24 21:00:00,
2013-03-24 15:05:00,33.4,5.0,-100.00,North,355,6.7,14.1,29,0.00,,,-99.99,642.0,HOBO +U30 +Weather +,2013-03-24 21:05:00,
2013-03-24 15:10:00,34.8,5.4,-100.00,NE,35,9.6,19.2,28,0.00,,,-99.99,639.0,HOBO +U30 +Weather +,2013-03-24 21:10:00,
2013-03-24 15:15:00,34.0,4.9,-100.00,NNW,348,8.5,14.1,28,0.00,,,-99.99,613.0,HOBO +U30 +Weather +,2013-03-24 21:15:00,
2013-03-24 15:20:00,33.2,4.0,-100.00,NNE,17,9.6,18.1,28,0.00,,,-99.99,611.0,HOBO +U30 +Weather +,2013-03-24 21:20:00,
2013-03-24 15:25:00,33.5,5.2,-100.00,NNE,14,9.6,15.2,29,0.00,,,-99.99,618.0,HOBO +U30 +Weather +,2013-03-24 21:25:00,
2013-03-24 15:30:00,32.2,4.9,-100.00,NE,46,7.8,16.3,30,0.00,,,-99.99,567.0,HOBO +U30 +Weather +,2013-03-24 21:30:00,
2013-03-24 15:35:00,33.3,5.1,-100.00,NNE,32,9.6,15.9,29,0.00,,,-99.99,552.0,HOBO +U30 +Weather +,2013-03-24 21:35:00,
2013-03-24 15:40:00,34.0,5.7,-100.00,NNE,20,9.6,15.9,29,0.00,,,-99.99,577.0,HOBO +U30 +Weather +,2013-03-24 21:40:00,
2013-03-24 15:45:00,33.7,6.0,-100.00,NE,49,7.8,15.9,30,0.00,,,-99.99,568.0,HOBO +U30 +Weather +,2013-03-24 21:45:00,
2013-03-24 15:50:00,33.3,6.1,-100.00,NNE,24,11.2,16.3,31,0.00,,,-99.99,554.0,HOBO +U30 +Weather +,2013-03-24 21:50:00,
2013-03-24 15:55:00,34.4,7.0,-100.00,North,11,9.6,15.2,31,0.00,,,-99.99,542.0,HOBO +U30 +Weather +,2013-03-24 21:55:00,
2013-03-24 16:00:00,33.9,7.3,-100.00,NNE,25,10.7,17.0,32,0.00,,,-99.99,528.0,HOBO +U30 +Weather +,2013-03-24 22:00:00,
2013-03-24 16:05:00,33.3,7.3,-100.00,NNE,32,11.9,17.0,32,0.00,,,-99.99,521.0,HOBO +U30 +Weather +,2013-03-24 22:05:00,
2013-03-24 16:10:00,32.7,7.7,-100.00,NE,34,11.2,18.1,34,0.00,,,-99.99,508.0,HOBO +U30 +Weather +,2013-03-24 22:10:00,
2013-03-24 16:15:00,32.5,7.9,-100.00,NE,34,12.3,19.2,34,0.00,,,-99.99,498.0,HOBO +U30 +Weather +,2013-03-24 22:15:00,
2013-03-24 16:20:00,33.6,8.8,-100.00,NE,45,10.7,16.3,34,0.00,,,-99.99,489.0,HOBO +U30 +Weather +,2013-03-24 22:20:00,
2013-03-24 16:25:00,32.8,8.3,-100.00,NNE,20,15.2,19.7,35,0.00,,,-99.99,479.0,HOBO +U30 +Weather +,2013-03-24 22:25:00,
2013-03-24 16:30:00,33.7,8.7,-100.00,North,11,11.9,17.4,34,0.00,,,-99.99,467.0,HOBO +U30 +Weather +,2013-03-24 22:30:00,
2013-03-24 16:35:00,33.0,8.5,-100.00,NNE,21,11.9,17.0,35,0.00,,,-99.99,456.0,HOBO +U30 +Weather +,2013-03-24 22:35:00,
2013-03-24 16:40:00,32.9,8.8,-100.00,NNE,27,8.9,14.1,35,0.00,,,-99.99,443.0,HOBO +U30 +Weather +,2013-03-24 22:40:00,
2013-03-24 16:45:00,33.0,8.2,-100.00,NNE,31,10.7,17.0,34,0.00,,,-99.99,431.0,HOBO +U30 +Weather +,2013-03-24 22:45:00,
2013-03-24 16:50:00,32.9,8.3,-100.00,NNE,15,10.7,14.5,35,0.00,,,-99.99,419.0,HOBO +U30 +Weather +,2013-03-24 22:50:00,
2013-03-24 16:55:00,32.9,8.4,-100.00,NNE,31,10.7,14.5,35,0.00,,,-99.99,407.0,HOBO +U30 +Weather +,2013-03-24 22:55:00,
2013-03-24 17:00:00,32.8,8.3,-100.00,NE,41,10.1,14.1,35,0.00,,,-99.99,394.0,HOBO +U30 +Weather +,2013-03-24 23:00:00,
2013-03-24 17:05:00,34.0,8.7,-100.00,NE,35,9.6,14.5,34,0.00,,,-99.99,382.0,HOBO +U30 +Weather +,2013-03-24 23:05:00,
2013-03-24 17:10:00,33.1,8.5,-100.00,NNE,25,11.2,15.9,35,0.00,,,-99.99,371.0,HOBO +U30 +Weather +,2013-03-24 23:10:00,
2013-03-24 17:15:00,32.9,8.4,-100.00,NE,37,10.1,16.3,35,0.00,,,-99.99,358.0,HOBO +U30 +Weather +,2013-03-24 23:15:00,
2013-03-24 17:20:00,33.3,8.3,-100.00,NE,39,10.1,18.6,34,0.00,,,-99.99,344.0,HOBO +U30 +Weather +,2013-03-24 23:20:00,
2013-03-24 17:25:00,32.9,8.5,-100.00,NNE,31,11.9,18.1,35,0.00,,,-99.99,331.0,HOBO +U30 +Weather +,2013-03-24 23:25:00,
2013-03-24 17:30:00,33.0,9.0,-100.00,NNE,28,8.9,16.3,36,0.00,,,-99.99,317.0,HOBO +U30 +Weather +,2013-03-24 23:30:00,
2013-03-24 17:35:00,33.4,8.8,-100.00,NNE,25,8.9,13.4,35,0.00,,,-99.99,303.0,HOBO +U30 +Weather +,2013-03-24 23:35:00,
2013-03-24 17:40:00,32.3,9.1,-100.00,NNE,29,11.2,15.2,37,0.00,,,-99.99,291.0,HOBO +U30 +Weather +,2013-03-24 23:40:00,
2013-03-24 17:45:00,32.9,9.6,-100.00,NE,38,10.7,15.2,37,0.00,,,-99.99,276.0,HOBO +U30 +Weather +,2013-03-24 23:45:00,
2013-03-24 17:50:00,32.2,9.5,-100.00,NNE,32,11.2,16.3,38,0.00,,,-99.99,262.0,HOBO +U30 +Weather +,2013-03-24 23:50:00,
2013-03-24 17:55:00,32.3,9.8,-100.00,NE,39,8.9,17.0,38,0.00,,,-99.99,249.0,HOBO +U30 +Weather +,2013-03-24 23:55:00,
2013-03-24 18:00:00,31.7,9.9,-100.00,NE,42,12.3,18.1,39,0.00,,,-99.99,233.0,HOBO +U30 +Weather +,2013-03-25 00:00:00,
2013-03-24 18:05:00,31.6,9.8,-100.00,NE,48,9.6,14.1,39,0.00,,,-99.99,219.0,HOBO +U30 +Weather +,2013-03-25 00:05:00,
2013-03-24 18:10:00,31.7,10.0,-100.00,ENE,60,11.2,14.5,39,0.00,,,-99.99,206.0,HOBO +U30 +Weather +,2013-03-25 00:10:00,
2013-03-24 18:15:00,31.9,9.9,-100.00,ENE,60,10.7,14.5,39,0.00,,,-99.99,193.0,HOBO +U30 +Weather +,2013-03-25 00:15:00,
2013-03-24 18:20:00,32.2,10.5,-100.00,NE,53,10.1,14.5,39,0.00,,,-99.99,179.0,HOBO +U30 +Weather +,2013-03-25 00:20:00,
2013-03-24 18:25:00,31.9,10.1,-100.00,NE,45,9.6,14.1,39,0.00,,,-99.99,164.0,HOBO +U30 +Weather +,2013-03-25 00:25:00,
2013-03-24 18:30:00,32.2,10.5,-100.00,NE,34,8.5,11.9,39,0.00,,,-99.99,151.0,HOBO +U30 +Weather +,2013-03-25 00:30:00,
2013-03-24 18:35:00,32.0,10.4,-100.00,NE,37,8.5,13.0,39,0.00,,,-99.99,138.0,HOBO +U30 +Weather +,2013-03-25 00:35:00,
2013-03-24 18:40:00,31.4,9.9,-100.00,NE,44,10.1,14.5,40,0.00,,,-99.99,123.0,HOBO +U30 +Weather +,2013-03-25 00:40:00,
2013-03-24 18:45:00,31.0,10.2,-100.00,NE,45,8.9,13.4,41,0.00,,,-99.99,107.0,HOBO +U30 +Weather +,2013-03-25 00:45:00,
2013-03-24 18:50:00,30.3,10.2,-100.00,ENE,67,12.3,17.4,42,0.00,,,-99.99,89.0,HOBO +U30 +Weather +,2013-03-25 00:50:00,
2013-03-24 18:55:00,30.1,10.0,-100.00,ENE,59,12.3,17.4,42,0.00,,,-99.99,73.0,HOBO +U30 +Weather +,2013-03-25 00:55:00,
2013-03-24 19:00:00,29.8,10.0,-100.00,ENE,66,11.9,15.9,42,0.00,,,-99.99,58.0,HOBO +U30 +Weather +,2013-03-25 01:00:00,
2013-03-24 19:05:00,29.6,9.9,-100.00,ENE,67,13.0,15.9,43,0.00,,,-99.99,46.0,HOBO +U30 +Weather +,2013-03-25 01:05:00,
2013-03-24 19:10:00,29.5,9.9,-100.00,ENE,62,12.3,16.3,43,0.00,,,-99.99,33.0,HOBO +U30 +Weather +,2013-03-25 01:10:00,
2013-03-24 19:15:00,29.2,9.9,-100.00,ENE,58,10.7,13.4,43,0.00,,,-99.99,23.0,HOBO +U30 +Weather +,2013-03-25 01:15:00,
2013-03-24 19:20:00,28.9,10.0,-100.00,ENE,65,11.2,14.5,44,0.00,,,-99.99,14.0,HOBO +U30 +Weather +,2013-03-25 01:20:00,
2013-03-24 19:25:00,28.5,9.9,-100.00,ENE,65,8.9,11.9,45,0.00,,,-99.99,8.0,HOBO +U30 +Weather +,2013-03-25 01:25:00,
2013-03-24 19:30:00,28.4,10.1,-100.00,ENE,67,9.6,11.2,45,0.00,,,-99.99,4.0,HOBO +U30 +Weather +,2013-03-25 01:30:00,
2013-03-24 19:35:00,28.2,10.3,-100.00,ENE,66,7.8,10.7,46,0.00,,,-99.99,2.0,HOBO +U30 +Weather +,2013-03-25 01:35:00,
2013-03-24 19:40:00,28.0,10.2,-100.00,ENE,65,8.5,11.2,46,0.00,,,-99.99,1.0,HOBO +U30 +Weather +,2013-03-25 01:40:00,
2013-03-24 19:45:00,27.8,10.2,-100.00,ENE,66,8.9,12.3,47,0.00,,,-99.99,1.0,HOBO +U30 +Weather +,2013-03-25 01:45:00,
2013-03-24 19:50:00,27.5,10.1,-100.00,ENE,63,8.5,11.9,47,0.00,,,-99.99,1.0,HOBO +U30 +Weather +,2013-03-25 01:50:00,
2013-03-24 19:55:00,27.4,10.1,-100.00,ENE,62,8.5,11.2,47,0.00,,,-99.99,1.0,HOBO +U30 +Weather +,2013-03-25 01:55:00,
2013-03-24 20:00:00,27.4,10.3,-100.00,ENE,58,6.7,10.7,48,0.00,,,-99.99,1.0,HOBO +U30 +Weather +,2013-03-25 02:00:00,
2013-03-24 20:05:00,27.3,10.1,-100.00,ENE,59,7.8,10.1,47,0.00,,,-99.99,1.0,HOBO +U30 +Weather +,2013-03-25 02:05:00,
2013-03-24 20:10:00,26.9,10.4,-100.00,ENE,66,7.4,8.9,49,0.00,,,-99.99,1.0,HOBO +U30 +Weather +,2013-03-25 02:10:00,
2013-03-24 20:15:00,26.9,10.3,-100.00,ENE,65,6.7,8.9,49,0.00,,,-99.99,1.0,HOBO +U30 +Weather +,2013-03-25 02:15:00,
2013-03-24 20:20:00,26.8,10.3,-100.00,ENE,74,7.8,11.2,49,0.00,,,-99.99,1.0,HOBO +U30 +Weather +,2013-03-25 02:20:00,
2013-03-24 20:25:00,26.4,10.4,-100.00,ENE,58,6.7,8.9,50,0.00,,,-99.99,1.0,HOBO +U30 +Weather +,2013-03-25 02:25:00,
2013-03-24 20:30:00,26.2,10.4,-100.00,NE,56,6.3,9.6,50,0.00,,,-99.99,1.0,HOBO +U30 +Weather +,2013-03-25 02:30:00,
2013-03-24 20:35:00,26.1,10.4,-100.00,NE,55,6.7,10.1,50,0.00,,,-99.99,1.0,HOBO +U30 +Weather +,2013-03-25 02:35:00,
2013-03-24 20:40:00,26.0,10.4,-100.00,NE,55,7.4,9.6,51,0.00,,,-99.99,1.0,HOBO +U30 +Weather +,2013-03-25 02:40:00,
2013-03-24 20:45:00,25.9,10.2,-100.00,NE,55,6.7,9.6,50,0.00,,,-99.99,1.0,HOBO +U30 +Weather +,2013-03-25 02:45:00,
2013-03-24 20:50:00,26.0,10.1,-100.00,NE,56,8.9,12.3,50,0.00,,,-99.99,1.0,HOBO +U30 +Weather +,2013-03-25 02:50:00,
2013-03-24 20:55:00,26.1,10.1,-100.00,ENE,62,7.4,9.6,50,0.00,,,-99.99,1.0,HOBO +U30 +Weather +,2013-03-25 02:55:00,
2013-03-24 21:00:00,26.2,10.0,-100.00,ENE,65,7.8,11.9,49,0.00,,,-99.99,1.0,HOBO +U30 +Weather +,2013-03-25 03:00:00,
2013-03-24 21:05:00,26.4,10.0,-100.00,ENE,67,6.7,11.2,49,0.00,,,-99.99,1.0,HOBO +U30 +Weather +,2013-03-25 03:05:00,
2013-03-24 21:10:00,25.9,9.9,-100.00,SE,146,2.9,6.7,50,0.00,,,-99.99,1.0,HOBO +U30 +Weather +,2013-03-25 03:10:00,
2013-03-24 21:15:00,25.5,9.7,-100.00,SSE,156,7.4,10.7,50,0.00,,,-99.99,1.0,HOBO +U30 +Weather +,2013-03-25 03:15:00,
2013-03-24 21:20:00,25.2,9.7,-100.00,SSE,154,5.6,8.9,51,0.00,,,-99.99,1.0,HOBO +U30 +Weather +,2013-03-25 03:20:00,
2013-03-24 21:25:00,24.8,9.6,-100.00,SSE,156,6.7,11.2,51,0.00,,,-99.99,1.0,HOBO +U30 +Weather +,2013-03-25 03:25:00,
2013-03-24 21:30:00,24.9,9.8,-100.00,SSE,152,7.4,13.0,52,0.00,,,-99.99,1.0,HOBO +U30 +Weather +,2013-03-25 03:30:00,
2013-03-24 21:35:00,24.8,9.8,-100.00,SE,143,4.0,10.7,52,0.00,,,-99.99,1.0,HOBO +U30 +Weather +,2013-03-25 03:35:00,
2013-03-24 21:40:00,24.6,9.8,-100.00,SSE,167,1.8,6.3,52,0.00,,,-99.99,1.0,HOBO +U30 +Weather +,2013-03-25 03:40:00,
2013-03-24 21:45:00,24.4,9.9,-100.00,South,173,1.8,6.7,53,0.00,,,-99.99,1.0,HOBO +U30 +Weather +,2013-03-25 03:45:00,
2013-03-24 21:50:00,24.3,10.0,-100.00,South,174,4.0,7.8,53,0.00,,,-99.99,1.0,HOBO +U30 +Weather +,2013-03-25 03:50:00,
2013-03-24 21:55:00,24.3,10.0,-100.00,South,178,2.9,6.7,53,0.00,,,-99.99,1.0,HOBO +U30 +Weather +,2013-03-25 03:55:00,
2013-03-24 22:00:00,24.2,9.9,-100.00,South,175,0.7,4.0,54,0.00,,,-99.99,1.0,HOBO +U30 +Weather +,2013-03-25 04:00:00,
2013-03-24 22:05:00,24.3,10.1,-100.00,NNW,331,0.7,4.5,54,0.00,,,-99.99,1.0,HOBO +U30 +Weather +,2013-03-25 04:05:00,
2013-03-24 22:10:00,24.2,10.1,-100.00,NW,305,1.1,3.4,54,0.00,,,-99.99,1.0,HOBO +U30 +Weather +,2013-03-25 04:10:00,
2013-03-24 22:15:00,24.1,10.1,-100.00,NNW,334,1.1,3.4,54,0.00,,,-99.99,1.0,HOBO +U30 +Weather +,2013-03-25 04:15:00,
2013-03-24 22:20:00,24.1,10.3,-100.00,NNW,347,1.8,6.3,55,0.00,,,-99.99,1.0,HOBO +U30 +Weather +,2013-03-25 04:20:00,
2013-03-24 22:25:00,23.6,9.7,-100.00,North,354,0.0,2.2,54,0.00,,,-99.99,1.0,HOBO +U30 +Weather +,2013-03-25 04:25:00,
2013-03-24 22:30:00,23.6,10.0,-100.00,NNW,337,0.0,1.8,55,0.00,,,-99.99,1.0,HOBO +U30 +Weather +,2013-03-25 04:30:00,
2013-03-24 22:35:00,23.8,10.1,-100.00,SSE,160,0.7,4.5,55,0.00,,,-99.99,1.0,HOBO +U30 +Weather +,2013-03-25 04:35:00,
2013-03-24 22:40:00,23.8,10.2,-100.00,South,178,0.7,4.5,55,0.00,,,-99.99,1.0,HOBO +U30 +Weather +,2013-03-25 04:40:00,
2013-03-24 22:45:00,24.0,10.4,-100.00,SSE,163,1.1,4.0,55,0.00,,,-99.99,1.0,HOBO +U30 +Weather +,2013-03-25 04:45:00,
2013-03-24 22:50:00,23.9,10.2,-100.00,SSE,147,0.0,2.2,55,0.00,,,-99.99,1.0,HOBO +U30 +Weather +,2013-03-25 04:50:00,
2013-03-24 22:55:00,23.6,10.2,-100.00,SSW,194,0.0,2.2,56,0.00,,,-99.99,1.0,HOBO +U30 +Weather +,2013-03-25 04:55:00,
2013-03-24 23:00:00,23.4,9.9,-100.00,SE,139,0.0,1.8,55,0.00,,,-99.99,1.0,HOBO +U30 +Weather +,2013-03-25 05:00:00,
2013-03-24 23:05:00,23.0,9.9,-100.00,NNE,17,1.1,2.9,56,0.00,,,-99.99,1.0,HOBO +U30 +Weather +,2013-03-25 05:05:00,
2013-03-24 23:10:00,22.9,9.9,-100.00,NNE,13,1.8,3.4,57,0.00,,,-99.99,1.0,HOBO +U30 +Weather +,2013-03-25 05:10:00,
2013-03-24 23:15:00,22.9,10.1,-100.00,NNE,15,2.9,5.6,57,0.00,,,-99.99,1.0,HOBO +U30 +Weather +,2013-03-25 05:15:00,
2013-03-24 23:20:00,22.4,10.1,-100.00,NNE,22,2.9,5.1,58,0.00,,,-99.99,1.0,HOBO +U30 +Weather +,2013-03-25 05:20:00,
2013-03-24 23:25:00,22.0,9.8,-100.00,NNE,15,0.0,2.2,59,0.00,,,-99.99,1.0,HOBO +U30 +Weather +,2013-03-25 05:25:00,
2013-03-24 23:30:00,21.8,9.9,-100.00,NNE,15,0.0,2.2,59,0.00,,,-99.99,1.0,HOBO +U30 +Weather +,2013-03-25 05:30:00,
2013-03-24 23:35:00,21.7,9.9,-100.00,NNE,15,0.7,3.4,59,0.00,,,-99.99,1.0,HOBO +U30 +Weather +,2013-03-25 05:35:00,
2013-03-24 23:40:00,21.5,9.7,-100.00,NNE,15,0.0,2.2,59,0.00,,,-99.99,1.0,HOBO +U30 +Weather +,2013-03-25 05:40:00,
2013-03-24 23:45:00,21.2,9.7,-100.00,NNE,15,0.0,1.1,60,0.00,,,-99.99,1.0,HOBO +U30 +Weather +,2013-03-25 05:45:00,
2013-03-24 23:50:00,21.2,9.5,-100.00,NNE,15,0.7,2.9,60,0.00,,,-99.99,1.0,HOBO +U30 +Weather +,2013-03-25 05:50:00,
2013-03-24 23:55:00,21.3,9.8,-100.00,NNE,17,0.7,2.2,60,0.00,,,-99.99,1.0,HOBO +U30 +Weather +,2013-03-25 05:55:00,